LFLPLIMJ

Guest
Details From LFLP - Meythet
To LIMJ - Genova Sestri
Flight Number -
Tags Generated
Created
Modified
Stats Distance 147 nm / 272 km
Max Altitude 0 ft / 0 m
Waypoints 2
Social Downloads 1
Likes 0
Share VATSIM

Download

Looking for another format? Having issues loading an existing format? Contact us
Advertisement - Login to hide

Notes

Generated

Route

LFLP LIMJ

ID Type Via Altitude Latitude Longitude Leg Dist Tot Dist Heading (true) Name
O LFLP APT - 0 ft / 0 m 45.93156˚ 6.10400˚ - 0 nm - Annecy Haute-Sovoie Mont Blanc Meythet
O LIMJ APT - 0 ft / 0 m 44.41542˚ 8.82419˚ 146 nm 146 nm 127° / 129° -

Altitude Profile

Advertisement - Login to hide

LFLP

Details ICAO LFLP (NCY)
Name Annecy Haute-Sovoie Mont Blanc Meythet
Region France
Timezone Europe/Paris (UTC+1.0)
Stats Elevation 1,520 ft / 463 m (AMSL)
Location 45.928820° 6.099601°
Runways 2
Magnetic Variation 1.739° E

METAR

LFLP 120430Z AUTO 32002KT 9999 -RA BKN016 OVC029 ///// Q1005 TEMPO 0800 SN FG OVC004

Decode

TAF

TAF LFLP 120200Z 1203/1303 VRB03KT 5000 -RA SCT010 BKN020 PROB30 TEMPO 1203/1208 0800 SN FG OVC004 BECMG 1208/1212 9999 NSW SCT030 BECMG 1218/1220 CAVOK

Decode

Departure Runways

ID Width Length Bearing (true) Bearing (mag) Surface Threshold Offset Overrun Length
04 98 ft / 30 m 5,290 ft / 1,612 m 38.51° 36.77° Asphalt 820 ft / 250 m 0 ft / 0 m
22 98 ft / 30 m 5,290 ft / 1,612 m 218.52° 216.78° Asphalt 755 ft / 230 m 0 ft / 0 m
22C 230 ft / 70 m 2,783 ft / 848 m 218.40° 216.66° Grass 0 ft / 0 m 0 ft / 0 m
4C 230 ft / 70 m 2,783 ft / 848 m 38.40° 36.66° Grass 0 ft / 0 m 0 ft / 0 m

LIMJ

Details ICAO LIMJ (GOA)
Name Genova Sestri
Region Italy
Timezone Unknown (UTC+0.0)
Stats Elevation 13 ft / 4 m (AMSL)
Location 44.411957° 8.841866°
Runways 1
Magnetic Variation 2.387° E

METAR

LIMJ 120420Z 17009KT 8000 SCT018 BKN035 13/08 Q1003

Decode

TAF

TAF LIMJ 112300Z 1200/1224 21015G35KT 3000 RA BKN020 BKN050 BECMG 1200/1202 8000 NSW BECMG 1212/1214 20012KT

Decode

Destination Runways

ID Width Length Bearing (true) Bearing (mag) Surface Threshold Offset Overrun Length
10 148 ft / 45 m 9,574 ft / 2,918 m 105.39° 103.00° Asphalt 0 ft / 0 m 0 ft / 0 m
28 148 ft / 45 m 9,574 ft / 2,918 m 285.41° 283.02° Asphalt 538 ft / 164 m 0 ft / 0 m

Approach Navaids

Runway Type Ident Frequency Range Bearing (true) Bearing (mag) Slope Elevation
28 Localiser GSE 109.30 MHz 18 nm / 33 km 287.30° 284.92° - 9 ft / 3 m (AMSL)
28 Glidescope GSE 109.30 MHz 10 nm / 19 km 287.30° 284.92° 3.17° 26 ft / 8 m (AMSL)
28 DME GSE 109.30 MHz 18 nm / 33 km - - - 26 ft / 8 m (AMSL)